Time;durP1;ratioP1;P1;durP2;ratioP2;P2;SDS_P1;SDS_P2;PMS_P1;PMS_P2;Temp;Humidity;BMP_temperature;BMP_pressure;BME280_temperature;BME280_humidity;BME280_pressure;Samples;Min_cycle;Max_cycle;Signal;HPM_P1;HPM_P2
2022/07/23 00:00:13;;;;;;;12.07;11.07;;;22.00;99.90;;;;;;4947976;28;20270;-79
2022/07/23 00:02:42;;;;;;;12.27;11.27;;;21.90;99.90;;;;;;4955428;29;20214;-79
2022/07/23 00:05:09;;;;;;;11.67;10.67;;;21.90;99.90;;;;;;4955158;29;20270;-79
2022/07/23 00:07:36;;;;;;;10.77;9.83;;;21.80;99.90;;;;;;4955283;29;20202;-79
2022/07/23 00:10:03;;;;;;;9.57;8.67;;;21.80;99.90;;;;;;4956453;28;20214;-79
2022/07/23 00:12:30;;;;;;;10.07;9.17;;;21.70;99.90;;;;;;4955632;29;20616;-79
2022/07/23 00:14:57;;;;;;;9.30;7.17;;;21.80;99.90;;;;;;4955150;29;20221;-80
2022/07/23 00:17:24;;;;;;;7.93;7.13;;;21.70;99.90;;;;;;4955184;29;20202;-78
2022/07/23 00:19:53;;;;;;;8.93;8.10;;;21.80;99.90;;;;;;4956139;28;20223;-78
2022/07/23 00:22:20;;;;;;;10.07;9.27;;;21.80;99.90;;;;;;4955166;29;20210;-79
2022/07/23 00:24:46;;;;;;;12.80;11.70;;;21.70;99.90;;;;;;4956095;29;20680;-79
2022/07/23 00:27:13;;;;;;;10.53;9.63;;;21.70;99.90;;;;;;4955084;29;20672;-79
2022/07/23 00:29:40;;;;;;;10.60;9.80;;;21.70;99.90;;;;;;4954850;28;20226;-79
2022/07/23 00:32:08;;;;;;;9.17;8.47;;;21.70;99.90;;;;;;4956101;28;20187;-79
2022/07/23 00:34:34;;;;;;;7.90;7.00;;;21.70;99.90;;;;;;4955030;29;20207;-79
2022/07/23 00:37:03;;;;;;;8.97;8.13;;;21.60;99.90;;;;;;4955167;29;20615;-79
2022/07/23 00:39:30;;;;;;;8.57;7.77;;;21.60;99.90;;;;;;4954688;28;20218;-79
2022/07/23 00:41:56;;;;;;;7.70;7.00;;;21.60;99.90;;;;;;4955363;29;20257;-79
2022/07/23 00:44:25;;;;;;;7.30;6.60;;;21.50;99.90;;;;;;4954342;29;20241;-79
2022/07/23 00:46:54;;;;;;;7.63;6.90;;;21.50;99.90;;;;;;4954630;29;20203;-79
2022/07/23 00:49:21;;;;;;;7.70;6.90;;;21.50;99.90;;;;;;4955955;28;20265;-79
2022/07/23 00:51:49;;;;;;;9.13;8.23;;;21.50;99.90;;;;;;4954545;29;20652;-79
2022/07/23 00:54:18;;;;;;;8.67;7.87;;;21.50;99.90;;;;;;4954429;29;20195;-79
2022/07/23 00:56:46;;;;;;;8.03;7.23;;;21.40;99.90;;;;;;4954701;29;20624;-79
2022/07/23 00:59:14;;;;;;;8.57;7.77;;;21.40;99.90;;;;;;4954285;28;20223;-79
2022/07/23 01:01:43;;;;;;;8.87;8.07;;;21.40;99.90;;;;;;4954822;29;20250;-80
2022/07/23 01:04:11;;;;;;;9.40;8.50;;;21.40;99.90;;;;;;4946407;29;20285;-79
2022/07/23 01:06:39;;;;;;;9.40;8.50;;;21.40;99.90;;;;;;4954265;29;20253;-79
2022/07/23 01:09:07;;;;;;;9.90;9.10;;;21.40;99.90;;;;;;4953614;28;20195;-79
2022/07/23 01:11:36;;;;;;;9.00;8.07;;;21.30;99.90;;;;;;4954010;28;20245;-78
2022/07/23 01:14:13;;;;;;;9.73;8.83;;;21.40;99.90;;;;;;4954125;29;20690;-79
2022/07/23 01:16:41;;;;;;;10.17;9.37;;;21.30;99.90;;;;;;4954326;29;20194;-79
2022/07/23 01:19:08;;;;;;;10.90;10.00;;;21.30;99.90;;;;;;4954001;29;20289;-79
2022/07/23 01:21:40;;;;;;;8.93;8.10;;;21.30;99.90;;;;;;4955840;28;20246;-79
2022/07/23 01:24:10;;;;;;;8.00;6.47;;;21.30;99.90;;;;;;4953716;29;20203;-79
2022/07/23 01:26:41;;;;;;;8.40;7.60;;;21.30;99.90;;;;;;4954166;29;20217;-79
2022/07/23 01:29:08;;;;;;;8.33;7.43;;;21.30;99.90;;;;;;4953867;29;20567;-79
2022/07/23 01:31:36;;;;;;;9.13;8.33;;;21.30;99.90;;;;;;4953777;28;20318;-79
2022/07/23 01:34:03;;;;;;;10.03;9.00;;;21.30;99.90;;;;;;4953582;29;20210;-79
2022/07/23 01:36:30;;;;;;;9.57;8.77;;;21.30;99.90;;;;;;4953943;28;20199;-79
2022/07/23 01:38:58;;;;;;;10.47;9.37;;;21.20;99.90;;;;;;4953781;29;20222;-79
2022/07/23 01:41:26;;;;;;;9.83;8.93;;;21.20;99.90;;;;;;4953734;28;20219;-79
2022/07/23 01:43:53;;;;;;;10.40;9.53;;;21.10;99.90;;;;;;4953537;28;20238;-79
2022/07/23 01:46:20;;;;;;;9.73;8.80;;;21.10;99.90;;;;;;4958530;28;20210;-79
2022/07/23 01:48:50;;;;;;;8.40;7.60;;;21.10;99.90;;;;;;4953566;29;20246;-79
2022/07/23 01:51:33;;;;;;;7.97;7.27;;;21.10;99.90;;;;;;4953517;28;20317;-80
2022/07/23 01:54:10;;;;;;;8.10;7.30;;;21.10;99.90;;;;;;4953103;28;20206;-78
2022/07/23 01:56:38;;;;;;;6.77;6.10;;;21.10;99.90;;;;;;4952965;29;20202;-79
2022/07/23 01:59:05;;;;;;;6.60;5.87;;;21.10;99.90;;;;;;4953340;28;20704;-79
2022/07/23 02:01:32;;;;;;;7.37;6.53;;;21.10;99.90;;;;;;4953341;28;20254;-79
2022/07/23 02:03:59;;;;;;;7.00;6.30;;;21.10;99.90;;;;;;4952976;29;20257;-78
2022/07/23 02:06:26;;;;;;;6.47;5.87;;;21.00;99.90;;;;;;4953167;29;20202;-79
2022/07/23 02:08:53;;;;;;;8.83;6.03;;;21.00;99.90;;;;;;4953378;29;20739;-79
2022/07/23 02:11:22;;;;;;;6.53;5.93;;;21.00;99.90;;;;;;4953181;28;20253;-79
2022/07/23 02:13:50;;;;;;;6.60;6.00;;;21.10;99.90;;;;;;4952809;29;20198;-79
2022/07/23 02:16:17;;;;;;;7.70;6.67;;;21.00;99.90;;;;;;4954168;29;20273;-79
2022/07/23 02:18:44;;;;;;;7.90;6.90;;;20.90;99.90;;;;;;4954242;29;20245;-79
2022/07/23 02:21:11;;;;;;;7.43;6.53;;;20.90;99.90;;;;;;4953193;28;20647;-79
2022/07/23 02:23:38;;;;;;;11.13;10.23;;;20.90;99.90;;;;;;4952839;29;20209;-79
2022/07/23 02:26:05;;;;;;;7.20;6.50;;;20.80;99.90;;;;;;4953172;29;20202;-79
2022/07/23 02:28:32;;;;;;;10.30;9.40;;;20.80;99.90;;;;;;4953001;28;20293;-79
2022/07/23 02:31:00;;;;;;;11.17;10.30;;;20.70;99.90;;;;;;4952710;28;20312;-79
2022/07/23 02:33:27;;;;;;;10.53;9.73;;;20.70;99.90;;;;;;4952791;29;20214;-79
2022/07/23 02:35:54;;;;;;;7.43;6.67;;;20.70;99.90;;;;;;4952871;29;20667;-80
2022/07/23 02:38:23;;;;;;;6.87;6.17;;;20.70;99.90;;;;;;4952963;29;20206;-79
2022/07/23 02:40:50;;;;;;;8.00;7.20;;;20.60;99.90;;;;;;4952794;28;20230;-79
2022/07/23 02:43:18;;;;;;;6.83;6.23;;;20.60;99.90;;;;;;4949880;29;20218;-78
2022/07/23 02:45:46;;;;;;;6.60;6.00;;;20.60;99.90;;;;;;4958354;28;20241;-77
2022/07/23 02:48:14;;;;;;;6.60;5.83;;;20.60;99.90;;;;;;4955745;28;20202;-78
2022/07/23 02:50:43;;;;;;;6.00;5.50;;;20.50;99.90;;;;;;4950581;28;20225;-77
2022/07/23 02:53:13;;;;;;;7.07;6.20;;;20.50;99.90;;;;;;4947227;29;20203;-76
2022/07/23 02:55:41;;;;;;;6.33;5.73;;;20.50;99.90;;;;;;4952708;29;20666;-77
2022/07/23 02:58:08;;;;;;;7.23;6.03;;;20.40;99.90;;;;;;4938469;28;20302;-78
2022/07/23 03:00:35;;;;;;;8.20;7.50;;;20.40;99.90;;;;;;4943871;29;20226;-78
2022/07/23 03:03:02;;;;;;;8.10;7.40;;;20.40;99.90;;;;;;4950650;28;20198;-77
2022/07/23 03:05:31;;;;;;;5.77;5.17;;;20.40;99.90;;;;;;4959463;28;20210;-77
2022/07/23 03:07:57;;;;;;;6.70;6.10;;;20.40;99.90;;;;;;4963681;28;20265;-77
2022/07/23 03:10:24;;;;;;;7.33;5.80;;;20.40;99.90;;;;;;4953323;28;20218;-77
2022/07/23 03:12:51;;;;;;;6.87;6.17;;;20.50;99.90;;;;;;4953614;29;20202;-78
2022/07/23 03:15:18;;;;;;;8.87;8.10;;;20.40;99.90;;;;;;4956184;29;20300;-80
2022/07/23 03:17:45;;;;;;;8.33;7.63;;;20.40;99.90;;;;;;4960841;28;20642;-78
2022/07/23 03:20:12;;;;;;;10.80;10.00;;;20.40;99.90;;;;;;4954105;28;20225;-77
2022/07/23 03:22:40;;;;;;;6.53;5.93;;;20.40;99.90;;;;;;4954295;29;20250;-77
2022/07/23 03:25:09;;;;;;;7.13;6.43;;;20.40;99.90;;;;;;4954107;29;20693;-77
2022/07/23 03:27:36;;;;;;;7.77;6.40;;;20.40;99.90;;;;;;4954023;29;20587;-77
2022/07/23 03:30:03;;;;;;;7.50;6.73;;;20.40;99.90;;;;;;4954397;28;20699;-77
2022/07/23 03:32:31;;;;;;;9.77;8.97;;;20.30;99.90;;;;;;4956408;28;20213;-77
2022/07/23 03:34:58;;;;;;;6.37;5.70;;;20.30;99.90;;;;;;4957358;29;20280;-77
2022/07/23 03:37:25;;;;;;;6.63;6.03;;;20.30;99.90;;;;;;4957366;28;20201;-77
2022/07/23 03:39:54;;;;;;;6.97;6.27;;;20.20;99.90;;;;;;4959005;28;20225;-77
2022/07/23 03:42:20;;;;;;;10.57;9.77;;;20.20;99.90;;;;;;4958170;29;20685;-77
2022/07/23 03:44:47;;;;;;;11.67;10.70;;;20.10;99.90;;;;;;4957422;29;20212;-78
2022/07/23 03:47:15;;;;;;;11.10;10.20;;;20.10;99.90;;;;;;4959277;29;20209;-78
2022/07/23 03:49:42;;;;;;;10.77;9.87;;;20.00;99.90;;;;;;4957800;28;20345;-77
2022/07/23 03:52:09;;;;;;;11.27;10.37;;;20.00;99.90;;;;;;4966256;28;20722;-77
2022/07/23 03:54:36;;;;;;;7.47;6.77;;;19.90;99.90;;;;;;4957915;29;20225;-77
2022/07/23 03:57:04;;;;;;;6.60;6.00;;;19.90;99.90;;;;;;4958118;29;20225;-77
2022/07/23 03:59:31;;;;;;;8.17;7.47;;;19.90;99.90;;;;;;4955196;28;20232;-77
2022/07/23 04:01:58;;;;;;;10.97;10.17;;;19.80;99.90;;;;;;4957802;29;20308;-77
2022/07/23 04:04:25;;;;;;;11.23;10.33;;;19.90;99.90;;;;;;4957597;29;20733;-77
2022/07/23 04:06:53;;;;;;;10.30;9.50;;;19.90;99.90;;;;;;4957467;29;20205;-77
2022/07/23 04:09:20;;;;;;;11.57;10.67;;;19.90;99.90;;;;;;4957691;28;20200;-79
2022/07/23 04:11:46;;;;;;;10.70;9.90;;;20.00;99.90;;;;;;4959286;29;20205;-78
2022/07/23 04:14:15;;;;;;;10.17;9.37;;;20.10;99.90;;;;;;4957496;29;20202;-78
2022/07/23 04:16:42;;;;;;;10.00;9.20;;;20.10;99.90;;;;;;4957054;29;20272;-78
2022/07/23 04:19:11;;;;;;;10.23;9.43;;;20.20;99.90;;;;;;4958382;28;20202;-78
2022/07/23 04:21:51;;;;;;;10.10;9.30;;;20.30;99.90;;;;;;4957931;29;20210;-78
2022/07/23 04:24:18;;;;;;;10.13;9.33;;;20.30;99.90;;;;;;4957820;28;20197;-78
2022/07/23 04:26:45;;;;;;;10.10;9.27;;;20.40;99.90;;;;;;4958223;29;20210;-79
2022/07/23 04:29:12;;;;;;;9.73;9.03;;;20.40;99.90;;;;;;4958532;28;20206;-79
2022/07/23 04:31:40;;;;;;;10.37;9.57;;;20.50;99.90;;;;;;4957625;29;20213;-79
2022/07/23 04:34:08;;;;;;;10.20;9.50;;;20.40;99.90;;;;;;4957141;29;20547;-79
2022/07/23 04:36:35;;;;;;;10.63;9.83;;;20.50;99.90;;;;;;4957364;29;20213;-79
2022/07/23 04:39:02;;;;;;;9.20;8.50;;;20.50;99.90;;;;;;4957026;29;20637;-79
2022/07/23 04:41:29;;;;;;;9.77;8.87;;;20.50;99.90;;;;;;4956734;28;20242;-78
2022/07/23 04:43:56;;;;;;;8.03;7.43;;;20.60;99.90;;;;;;4955158;28;20775;-78
2022/07/23 04:46:23;;;;;;;6.60;5.97;;;20.70;99.90;;;;;;4960828;29;20205;-79
2022/07/23 04:48:52;;;;;;;7.30;6.60;;;20.80;99.90;;;;;;4959186;29;20881;-78
2022/07/23 04:51:19;;;;;;;6.50;5.80;;;20.90;99.90;;;;;;4960845;28;20664;-79
2022/07/23 04:53:46;;;;;;;8.07;7.37;;;21.10;99.90;;;;;;4957840;29;20205;-79
2022/07/23 04:56:13;;;;;;;10.53;9.73;;;21.20;99.90;;;;;;4957209;29;20202;-80
2022/07/23 04:58:40;;;;;;;10.30;9.43;;;21.30;99.90;;;;;;4957632;29;20202;-77
2022/07/23 05:01:07;;;;;;;9.57;8.80;;;21.50;99.90;;;;;;4952266;28;20305;-76
2022/07/23 05:03:36;;;;;;;10.20;9.40;;;21.80;99.90;;;;;;4949030;29;20290;-78
2022/07/23 05:06:04;;;;;;;10.37;9.57;;;22.00;99.90;;;;;;4970638;28;20230;-78
2022/07/23 05:08:31;;;;;;;6.57;5.97;;;22.00;99.90;;;;;;4969065;28;20203;-78
2022/07/23 05:10:59;;;;;;;6.50;5.90;;;22.00;99.90;;;;;;4947019;28;20597;-79
2022/07/23 05:13:26;;;;;;;10.27;9.47;;;21.90;99.90;;;;;;4949621;29;20207;-78
2022/07/23 05:15:54;;;;;;;11.00;10.20;;;21.80;99.90;;;;;;4954612;28;20199;-78
2022/07/23 05:18:21;;;;;;;9.90;9.10;;;21.80;99.90;;;;;;4955433;29;20210;-77
2022/07/23 05:20:49;;;;;;;6.50;5.90;;;21.80;99.90;;;;;;4954967;29;20258;-78
2022/07/23 05:23:22;;;;;;;8.77;8.07;;;21.70;99.90;;;;;;4955203;29;20202;-78
2022/07/23 05:25:50;;;;;;;10.67;9.87;;;21.70;99.90;;;;;;4954949;29;20625;-78
2022/07/23 05:28:17;;;;;;;11.00;10.20;;;21.80;99.90;;;;;;4956190;29;20633;-77
2022/07/23 05:30:44;;;;;;;10.87;9.97;;;21.80;99.90;;;;;;4955531;28;20226;-79
2022/07/23 05:33:14;;;;;;;10.27;9.53;;;21.80;99.90;;;;;;4954750;29;20234;-77
2022/07/23 05:35:42;;;;;;;7.07;6.30;;;21.80;99.90;;;;;;4951867;28;20205;-78
2022/07/23 05:38:31;;;;;;;9.20;8.43;;;21.80;99.90;;;;;;4966244;28;20766;-78
2022/07/23 05:41:00;;;;;;;7.60;6.80;;;21.80;99.90;;;;;;4974094;28;20222;-78
2022/07/23 05:43:28;;;;;;;7.47;6.77;;;21.80;99.90;;;;;;4956767;29;20261;-77
2022/07/23 05:45:57;;;;;;;7.87;6.80;;;21.80;99.90;;;;;;4954697;28;20198;-77
2022/07/23 05:48:27;;;;;;;6.90;6.20;;;21.90;99.90;;;;;;4953189;29;20207;-78
2022/07/23 05:51:03;;;;;;;7.20;6.50;;;22.00;99.90;;;;;;4971175;28;20226;-78
2022/07/23 05:53:33;;;;;;;8.23;6.83;;;22.20;99.90;;;;;;4957400;28;20266;-78
2022/07/23 05:56:03;;;;;;;10.40;9.50;;;22.50;99.90;;;;;;4952604;28;20199;-78
2022/07/23 05:58:31;;;;;;;11.07;10.17;;;22.70;99.90;;;;;;4954936;29;20290;-78
2022/07/23 06:00:58;;;;;;;11.00;10.10;;;23.30;99.90;;;;;;4953370;28;20314;-77
2022/07/23 06:03:25;;;;;;;11.37;10.57;;;23.80;99.90;;;;;;4947651;29;20217;-78
2022/07/23 06:05:52;;;;;;;8.87;8.07;;;24.50;99.90;;;;;;4954769;29;20229;-78
2022/07/23 06:08:19;;;;;;;10.80;9.73;;;25.10;99.90;;;;;;4956156;28;20213;-77
2022/07/23 06:10:47;;;;;;;9.00;8.20;;;25.40;99.90;;;;;;4952274;28;20720;-78
2022/07/23 06:13:14;;;;;;;10.07;9.00;;;25.50;99.90;;;;;;4954124;29;20206;-76
2022/07/23 06:15:42;;;;;;;7.13;6.43;;;25.60;99.90;;;;;;4955153;29;20218;-77
2022/07/23 06:18:08;;;;;;;11.03;10.07;;;25.80;99.90;;;;;;4954389;29;20210;-78
2022/07/23 06:20:35;;;;;;;11.27;10.27;;;26.20;99.90;;;;;;4954858;28;20571;-78
2022/07/23 06:23:02;;;;;;;11.20;10.30;;;26.30;99.90;;;;;;4971121;28;20214;-78
2022/07/23 06:25:29;;;;;;;10.57;9.77;;;26.20;99.90;;;;;;4954970;29;20216;-77
2022/07/23 06:27:57;;;;;;;9.40;8.50;;;26.20;99.90;;;;;;4954093;29;20640;-78
2022/07/23 06:30:27;;;;;;;8.60;7.87;;;26.20;99.90;;;;;;4956338;28;20576;-79
2022/07/23 06:32:54;;;;;;;9.70;8.70;;;26.20;99.90;;;;;;4958760;29;20214;-78
2022/07/23 06:35:20;;;;;;;8.40;7.70;;;26.40;99.90;;;;;;4957072;29;20670;-79
2022/07/23 06:37:47;;;;;;;8.67;7.87;;;26.70;99.90;;;;;;4956736;29;20270;-79
2022/07/23 06:40:14;;;;;;;9.13;8.43;;;27.00;99.90;;;;;;4950686;28;20222;-78
2022/07/23 06:42:41;;;;;;;9.43;8.73;;;27.50;99.90;;;;;;4954336;29;20214;-78
2022/07/23 06:45:16;;;;;;;10.87;10.07;;;27.80;99.90;;;;;;4954028;29;20203;-77
2022/07/23 06:47:43;;;;;;;10.40;9.60;;;28.10;99.90;;;;;;4952778;29;20703;-78
2022/07/23 06:50:10;;;;;;;10.80;9.90;;;28.50;99.90;;;;;;4951746;28;20222;-79
2022/07/23 06:52:38;;;;;;;10.27;9.37;;;28.70;99.90;;;;;;4951022;29;20195;-78
2022/07/23 06:55:06;;;;;;;10.13;9.43;;;28.80;99.90;;;;;;4957561;29;20217;-79
2022/07/23 06:57:33;;;;;;;11.17;10.23;;;29.10;99.90;;;;;;4955625;29;20206;-81
2022/07/23 07:00:00;;;;;;;10.37;9.57;;;29.20;99.90;;;;;;4953082;28;20226;-77
2022/07/23 07:02:28;;;;;;;10.77;9.80;;;29.50;99.90;;;;;;4953343;29;20218;-78
2022/07/23 07:04:56;;;;;;;10.20;9.33;;;29.60;99.90;;;;;;4954077;29;20213;-78
2022/07/23 07:07:23;;;;;;;10.20;9.37;;;29.50;99.90;;;;;;4954764;28;20285;-78
2022/07/23 07:09:50;;;;;;;9.93;9.03;;;29.70;99.90;;;;;;4955000;28;20293;-78
2022/07/23 07:12:17;;;;;;;8.93;8.17;;;29.90;99.90;;;;;;4954363;29;20660;-81
2022/07/23 07:14:43;;;;;;;9.37;8.57;;;30.10;99.90;;;;;;4960151;28;20203;-81
2022/07/23 07:17:10;;;;;;;8.73;8.03;;;30.50;99.90;;;;;;4954608;28;20683;-81
2022/07/23 07:19:38;;;;;;;8.80;8.10;;;30.80;99.90;;;;;;4952203;28;20233;-81
2022/07/23 07:22:05;;;;;;;9.37;8.57;;;30.40;99.90;;;;;;4952741;29;20211;-81
2022/07/23 07:24:32;;;;;;;9.37;8.13;;;30.00;99.90;;;;;;4953685;28;20198;-80
2022/07/23 07:26:59;;;;;;;8.93;8.13;;;29.60;99.90;;;;;;4953465;29;20202;-81
2022/07/23 07:29:26;;;;;;;8.90;8.20;;;28.80;99.90;;;;;;4948724;29;20641;-82
2022/07/23 07:31:53;;;;;;;8.50;7.80;;;28.40;99.90;;;;;;4950536;28;20210;-80
2022/07/23 07:34:20;;;;;;;9.37;8.57;;;28.10;99.90;;;;;;4957416;28;20631;-80
2022/07/23 07:36:49;;;;;;;9.83;8.93;;;27.70;99.90;;;;;;4959998;28;20206;-79
2022/07/23 07:39:16;;;;;;;9.67;8.87;;;28.00;99.90;;;;;;4957368;28;20194;-78
2022/07/23 07:41:43;;;;;;;9.70;8.77;;;28.20;99.90;;;;;;4956564;29;20282;-78
2022/07/23 07:44:10;;;;;;;9.67;8.87;;;28.10;99.90;;;;;;4955126;29;20240;-79
2022/07/23 07:46:36;;;;;;;9.17;8.40;;;28.00;99.90;;;;;;4957475;29;20206;-79
2022/07/23 07:49:03;;;;;;;9.90;9.10;;;27.90;99.90;;;;;;4957165;29;20206;-79
2022/07/23 07:51:30;;;;;;;10.60;9.80;;;27.80;99.90;;;;;;4958189;28;20285;-79
2022/07/23 07:53:58;;;;;;;10.27;9.40;;;27.60;99.90;;;;;;4958799;28;20250;-79
2022/07/23 07:56:25;;;;;;;10.37;9.57;;;27.40;99.90;;;;;;4956670;29;20203;-78
2022/07/23 07:58:52;;;;;;;10.10;9.40;;;27.60;99.90;;;;;;4958451;28;20664;-80
2022/07/23 08:01:20;;;;;;;9.83;9.10;;;27.60;99.90;;;;;;4956661;28;20226;-78
2022/07/23 08:03:46;;;;;;;9.40;8.70;;;27.60;99.90;;;;;;4957044;29;20222;-79
2022/07/23 08:06:13;;;;;;;10.33;9.43;;;27.60;99.90;;;;;;4957976;28;20231;-78
2022/07/23 08:08:40;;;;;;;10.53;9.60;;;27.60;99.90;;;;;;4973111;28;20336;-79
2022/07/23 08:11:08;;;;;;;10.87;9.80;;;27.70;99.90;;;;;;4957677;28;20219;-79
2022/07/23 08:13:35;;;;;;;10.27;9.47;;;28.00;99.90;;;;;;4958105;28;20742;-79
2022/07/23 08:16:02;;;;;;;10.43;9.53;;;28.60;99.90;;;;;;4957905;28;20675;-79
2022/07/23 08:18:29;;;;;;;10.27;9.43;;;28.70;99.90;;;;;;4957924;28;20206;-79
2022/07/23 08:20:56;;;;;;;10.33;9.57;;;28.50;99.90;;;;;;4960898;28;20277;-78
2022/07/23 08:23:23;;;;;;;10.80;9.90;;;28.40;99.90;;;;;;4961700;29;20207;-79
2022/07/23 08:25:50;;;;;;;10.00;9.20;;;28.20;99.90;;;;;;4961979;29;20647;-79
2022/07/23 08:28:18;;;;;;;10.33;9.50;;;28.20;99.90;;;;;;4960424;29;20198;-79
2022/07/23 08:30:45;;;;;;;10.50;9.50;;;28.20;99.90;;;;;;4961014;28;20778;-79
2022/07/23 08:33:14;;;;;;;9.83;9.03;;;28.40;99.90;;;;;;4959773;29;20675;-78
2022/07/23 08:35:44;;;;;;;9.90;9.10;;;28.70;99.90;;;;;;4961514;28;20755;-79
2022/07/23 08:38:12;;;;;;;10.50;9.70;;;28.90;99.90;;;;;;4961161;28;20202;-79
2022/07/23 08:40:40;;;;;;;9.70;8.90;;;28.90;99.90;;;;;;4961363;28;20257;-79
2022/07/23 08:43:09;;;;;;;10.27;9.27;;;29.10;99.90;;;;;;4961587;29;20227;-78
2022/07/23 08:45:40;;;;;;;9.60;8.77;;;29.30;99.90;;;;;;4960308;29;20206;-79
2022/07/23 08:48:09;;;;;;;9.50;8.70;;;29.60;99.90;;;;;;4959583;29;20241;-78
2022/07/23 08:50:37;;;;;;;9.47;8.67;;;29.70;99.90;;;;;;4959312;28;20225;-79
2022/07/23 08:53:08;;;;;;;9.70;8.83;;;29.80;99.90;;;;;;4961798;29;20203;-79
2022/07/23 08:55:35;;;;;;;9.27;8.50;;;30.00;99.90;;;;;;4960900;28;20301;-79
2022/07/23 08:58:02;;;;;;;9.37;8.57;;;30.30;99.90;;;;;;4959454;29;20270;-78
2022/07/23 09:00:29;;;;;;;8.80;8.10;;;30.20;99.90;;;;;;4961574;28;20572;-79
2022/07/23 09:02:58;;;;;;;8.93;8.13;;;30.20;99.90;;;;;;4959531;29;20832;-79
2022/07/23 09:05:25;;;;;;;8.80;8.10;;;30.20;99.90;;;;;;4959575;29;20230;-78
2022/07/23 09:08:13;;;;;;;8.33;7.63;;;30.10;99.90;;;;;;4960808;28;20206;-79
2022/07/23 09:10:49;;;;;;;10.00;9.20;;;29.60;99.90;;;;;;4961139;28;20222;-79
2022/07/23 09:13:46;;;;;;;10.23;9.43;;;29.70;99.90;;;;;;4958147;29;20559;-79
2022/07/23 09:16:16;;;;;;;10.37;9.57;;;29.80;99.90;;;;;;4928206;28;20261;-78
2022/07/23 09:18:46;;;;;;;9.90;9.20;;;29.60;99.90;;;;;;4961683;29;20198;-79
2022/07/23 09:21:32;;;;;;;8.87;8.17;;;29.50;99.90;;;;;;4958762;28;20226;-78
2022/07/23 09:24:01;;;;;;;8.77;7.97;;;29.90;99.90;;;;;;4960521;28;20209;-79
2022/07/23 09:26:34;;;;;;;8.60;7.90;;;30.00;99.90;;;;;;4959926;29;20237;-79
2022/07/23 09:29:08;;;;;;;8.70;8.00;;;29.90;99.90;;;;;;4959267;29;20202;-78
2022/07/23 09:31:44;;;;;;;8.57;7.87;;;30.10;99.90;;;;;;4960034;28;20219;-79
2022/07/23 09:34:16;;;;;;;9.53;8.83;;;29.80;99.90;;;;;;4956593;29;20202;-79
2022/07/23 09:36:43;;;;;;;9.53;8.83;;;29.80;99.90;;;;;;4960945;28;20190;-79
2022/07/23 09:39:11;;;;;;;9.73;8.93;;;29.80;99.90;;;;;;4960788;28;20209;-79
2022/07/23 09:41:41;;;;;;;10.57;9.73;;;30.00;99.90;;;;;;4958743;28;20281;-79
2022/07/23 09:44:14;;;;;;;8.80;8.00;;;30.10;99.90;;;;;;4958819;29;20202;-79
2022/07/23 09:46:41;;;;;;;8.60;7.90;;;30.30;99.90;;;;;;4959596;29;20217;-79
2022/07/23 09:49:14;;;;;;;8.80;8.00;;;30.40;99.90;;;;;;4958545;29;20292;-79
2022/07/23 09:51:47;;;;;;;9.07;8.17;;;30.70;99.90;;;;;;4953733;28;20250;-80
2022/07/23 09:54:32;;;;;;;10.13;9.33;;;30.60;99.90;;;;;;4975352;28;20206;-81
2022/07/23 09:57:01;;;;;;;10.47;9.57;;;30.70;99.90;;;;;;4956390;29;20216;-79
2022/07/23 09:59:35;;;;;;;10.63;9.77;;;30.90;99.90;;;;;;4953139;28;20968;-80
2022/07/23 10:02:04;;;;;;;10.70;9.80;;;31.10;99.90;;;;;;4953741;28;20210;-79
2022/07/23 10:04:38;;;;;;;10.07;9.30;;;31.10;99.90;;;;;;4953713;28;20220;-78
2022/07/23 10:07:18;;;;;;;11.10;10.30;;;31.20;99.90;;;;;;4953485;28;20205;-79
2022/07/23 10:10:05;;;;;;;10.43;9.60;;;30.70;99.90;;;;;;4955410;28;20305;-79
2022/07/23 10:13:15;;;;;;;10.10;9.27;;;30.90;99.90;;;;;;4955520;29;20201;-79
2022/07/23 10:15:42;;;;;;;10.97;10.17;;;30.40;99.90;;;;;;4954661;28;20206;-79
2022/07/23 10:18:11;;;;;;;9.10;8.40;;;30.40;99.90;;;;;;4953764;28;20316;-79
2022/07/23 10:20:40;;;;;;;10.00;9.20;;;30.20;99.90;;;;;;4952417;28;20222;-79
2022/07/23 10:23:16;;;;;;;10.15;9.35;;;29.90;99.90;;;;;;4952029;28;20479;-80
2022/07/23 10:25:50;;;;;;;10.07;9.27;;;29.70;99.90;;;;;;4955347;29;20531;-80
2022/07/23 10:28:32;;;;;;;9.90;9.00;;;29.60;99.90;;;;;;4946984;29;20214;-80
2022/07/23 10:31:10;;;;;;;8.97;8.17;;;29.50;99.90;;;;;;4951480;28;20242;-80
2022/07/23 10:33:46;;;;;;;8.87;8.07;;;30.00;99.90;;;;;;4954355;28;20205;-80
2022/07/23 10:36:21;;;;;;;8.70;8.00;;;30.00;99.90;;;;;;4948128;29;20198;-80
2022/07/23 10:38:53;;;;;;;9.53;8.67;;;30.00;99.90;;;;;;4951361;29;20201;-79
2022/07/23 10:41:32;;;;;;;8.87;8.07;;;30.00;99.90;;;;;;4954398;28;20290;-79
2022/07/23 10:44:11;;;;;;;9.00;8.20;;;29.90;99.90;;;;;;4953314;29;20214;-79
2022/07/23 10:47:00;;;;;;;8.47;7.70;;;30.00;99.90;;;;;;4956010;29;20206;-78
2022/07/23 10:49:28;;;;;;;8.70;8.00;;;30.00;99.90;;;;;;4949393;28;20635;-79
2022/07/23 10:52:29;;;;;;;9.87;8.97;;;29.70;99.90;;;;;;4954207;28;20214;-79
2022/07/23 10:55:17;;;;;;;9.50;8.60;;;29.50;99.90;;;;;;4897705;29;20625;-78
2022/07/23 10:57:50;;;;;;;10.37;9.47;;;29.30;99.90;;;;;;4897563;29;20266;-79
2022/07/23 11:00:22;;;;;;;11.00;10.10;;;29.40;99.90;;;;;;4935543;28;20238;-79
2022/07/23 11:02:50;;;;;;;10.50;9.60;;;29.70;99.90;;;;;;4953202;29;20226;-79
2022/07/23 11:05:19;;;;;;;10.20;9.50;;;29.50;99.90;;;;;;4955852;29;20209;-79
2022/07/23 11:08:14;;;;;;;10.23;9.43;;;29.40;99.90;;;;;;4956460;28;20226;-79
2022/07/23 11:10:43;;;;;;;10.00;9.20;;;29.60;99.90;;;;;;4954136;28;20257;-79
2022/07/23 11:13:32;;;;;;;9.27;8.57;;;29.70;99.90;;;;;;4951318;29;20198;-78
2022/07/23 11:16:12;;;;;;;9.33;8.53;;;29.80;99.90;;;;;;4956197;28;20234;-78
2022/07/23 11:19:06;;;;;;;9.57;8.87;;;30.00;99.90;;;;;;4957438;29;20585;-79
2022/07/23 11:21:47;;;;;;;9.70;8.87;;;29.90;99.90;;;;;;4951568;29;20678;-79
2022/07/23 11:24:19;;;;;;;9.83;9.03;;;29.80;99.90;;;;;;4953250;29;20256;-79
2022/07/23 11:26:48;;;;;;;9.47;8.67;;;30.10;99.90;;;;;;4953272;29;20210;-79
2022/07/23 11:29:51;;;;;;;10.10;9.30;;;30.20;99.90;;;;;;4953704;28;20777;-79
2022/07/23 11:32:35;;;;;;;10.50;9.60;;;29.90;99.90;;;;;;4953425;29;20198;-78
2022/07/23 11:35:03;;;;;;;10.37;9.57;;;29.70;99.90;;;;;;4953956;28;20298;-79
2022/07/23 11:37:34;;;;;;;10.97;10.17;;;29.70;99.90;;;;;;4952923;29;20206;-78
2022/07/23 11:40:01;;;;;;;9.33;8.47;;;29.60;99.90;;;;;;4952610;28;20318;-78
2022/07/23 11:42:28;;;;;;;7.23;6.40;;;29.50;99.90;;;;;;4953691;28;20211;-79
2022/07/23 11:44:56;;;;;;;9.13;8.37;;;29.30;99.90;;;;;;4953267;29;20622;-79
2022/07/23 11:47:24;;;;;;;8.17;7.47;;;29.50;99.90;;;;;;4954078;29;20206;-78
2022/07/23 11:49:55;;;;;;;9.10;8.20;;;29.70;99.90;;;;;;4956628;28;20227;-79
2022/07/23 11:52:23;;;;;;;7.37;6.23;;;29.90;99.90;;;;;;4954273;29;20217;-79
2022/07/23 11:54:52;;;;;;;7.80;7.07;;;30.00;99.90;;;;;;4950542;28;20206;-80
2022/07/23 11:57:21;;;;;;;6.33;5.70;;;30.00;99.90;;;;;;4969170;28;20209;-80
2022/07/23 11:59:52;;;;;;;9.10;8.23;;;30.10;99.90;;;;;;4953755;28;20707;-79
2022/07/23 12:02:21;;;;;;;7.67;6.87;;;30.20;99.90;;;;;;4955316;29;20243;-79
2022/07/23 12:04:49;;;;;;;7.07;6.37;;;30.20;99.90;;;;;;4955442;29;20667;-79
2022/07/23 12:07:30;;;;;;;7.00;6.30;;;30.20;99.90;;;;;;4962232;28;20195;-80
2022/07/23 12:10:00;;;;;;;6.00;5.40;;;30.10;99.90;;;;;;4956095;28;20233;-79
2022/07/23 12:12:27;;;;;;;7.00;6.20;;;30.00;99.90;;;;;;4956903;29;20207;-79
2022/07/23 12:14:56;;;;;;;8.27;7.47;;;30.10;99.90;;;;;;4955945;28;20235;-79
2022/07/23 12:17:31;;;;;;;8.93;8.13;;;30.00;99.90;;;;;;4957373;29;20199;-79
2022/07/23 12:19:59;;;;;;;8.90;8.10;;;30.10;99.90;;;;;;4953840;29;20703;-80
2022/07/23 12:22:34;;;;;;;6.07;5.57;;;30.30;99.90;;;;;;4949992;29;20223;-79
2022/07/23 12:25:04;;;;;;;7.10;6.40;;;30.30;99.80;;;;;;4953971;29;20191;-80
2022/07/23 12:27:31;;;;;;;7.13;6.17;;;30.40;99.90;;;;;;4958652;28;20238;-79
2022/07/23 12:29:58;;;;;;;7.60;6.00;;;30.30;99.90;;;;;;4957162;29;20476;-80
2022/07/23 12:32:27;;;;;;;6.43;5.83;;;30.20;99.10;;;;;;4956682;28;20257;-80
2022/07/23 12:35:06;;;;;;;6.83;5.70;;;30.20;99.50;;;;;;4955627;29;20676;-79
2022/07/23 12:37:34;;;;;;;7.17;6.47;;;30.30;99.90;;;;;;4961873;29;20253;-80
2022/07/23 12:40:23;;;;;;;6.97;6.27;;;30.10;99.90;;;;;;4961601;28;20270;-80
2022/07/23 12:42:52;;;;;;;6.87;6.27;;;29.80;99.90;;;;;;4973702;28;20719;-81
2022/07/23 12:45:19;;;;;;;9.37;8.03;;;29.60;99.90;;;;;;4956839;29;20202;-79
2022/07/23 12:48:07;;;;;;;9.60;8.73;;;29.60;99.90;;;;;;4956641;29;20237;-80
2022/07/23 12:50:44;;;;;;;10.17;9.37;;;29.40;99.90;;;;;;4953345;28;20766;-80
2022/07/23 12:53:15;;;;;;;10.30;9.40;;;29.20;99.90;;;;;;4951244;29;20187;-79
2022/07/23 12:55:43;;;;;;;9.33;7.80;;;29.30;99.90;;;;;;4954588;29;20209;-79